sensor_id;sensor_type;location;lat;lon;timestamp;temperature;humidity
26982;DHT22;14533;50.848;4.380;2022-08-07T00:00:21;18.70;97.30
26982;DHT22;14533;50.848;4.380;2022-08-07T00:02:47;18.70;97.70
26982;DHT22;14533;50.848;4.380;2022-08-07T00:05:13;18.60;98.10
26982;DHT22;14533;50.848;4.380;2022-08-07T00:07:39;18.60;98.40
26982;DHT22;14533;50.848;4.380;2022-08-07T00:10:05;18.70;98.60
26982;DHT22;14533;50.848;4.380;2022-08-07T00:12:31;18.60;98.90
26982;DHT22;14533;50.848;4.380;2022-08-07T00:14:57;18.70;99.10
26982;DHT22;14533;50.848;4.380;2022-08-07T00:17:23;18.70;99.30
26982;DHT22;14533;50.848;4.380;2022-08-07T00:19:48;18.60;99.70
26982;DHT22;14533;50.848;4.380;2022-08-07T00:22:15;18.60;99.90
26982;DHT22;14533;50.848;4.380;2022-08-07T00:24:41;18.50;99.90
26982;DHT22;14533;50.848;4.380;2022-08-07T00:27:06;18.50;99.90
26982;DHT22;14533;50.848;4.380;2022-08-07T00:29:32;18.60;99.90
26982;DHT22;14533;50.848;4.380;2022-08-07T00:31:58;18.70;99.90
26982;DHT22;14533;50.848;4.380;2022-08-07T00:34:25;18.60;99.90
26982;DHT22;14533;50.848;4.380;2022-08-07T00:36:51;18.50;99.90
26982;DHT22;14533;50.848;4.380;2022-08-07T00:39:17;18.50;99.90
26982;DHT22;14533;50.848;4.380;2022-08-07T00:41:53;18.40;99.90
26982;DHT22;14533;50.848;4.380;2022-08-07T00:44:19;18.40;99.90
26982;DHT22;14533;50.848;4.380;2022-08-07T00:46:45;18.30;99.90
26982;DHT22;14533;50.848;4.380;2022-08-07T00:49:10;18.30;99.90
26982;DHT22;14533;50.848;4.380;2022-08-07T00:51:36;18.30;99.90
26982;DHT22;14533;50.848;4.380;2022-08-07T00:54:02;18.30;99.90
26982;DHT22;14533;50.848;4.380;2022-08-07T00:56:27;18.30;99.90
26982;DHT22;14533;50.848;4.380;2022-08-07T00:58:54;18.20;99.90
26982;DHT22;14533;50.848;4.380;2022-08-07T01:01:21;18.10;99.90
26982;DHT22;14533;50.848;4.380;2022-08-07T01:03:48;18.10;99.90
26982;DHT22;14533;50.848;4.380;2022-08-07T01:06:14;18.10;99.90
26982;DHT22;14533;50.848;4.380;2022-08-07T01:08:41;18.10;99.90
26982;DHT22;14533;50.848;4.380;2022-08-07T01:11:07;18.00;99.90
26982;DHT22;14533;50.848;4.380;2022-08-07T01:13:33;18.00;99.90
26982;DHT22;14533;50.848;4.380;2022-08-07T01:16:00;18.00;99.90
26982;DHT22;14533;50.848;4.380;2022-08-07T01:18:26;18.00;99.90
26982;DHT22;14533;50.848;4.380;2022-08-07T01:21:12;18.00;99.90
26982;DHT22;14533;50.848;4.380;2022-08-07T01:23:40;17.90;99.90
26982;DHT22;14533;50.848;4.380;2022-08-07T01:26:08;17.90;99.90
26982;DHT22;14533;50.848;4.380;2022-08-07T01:28:35;17.80;99.90
26982;DHT22;14533;50.848;4.380;2022-08-07T01:31:02;17.90;99.90
26982;DHT22;14533;50.848;4.380;2022-08-07T01:33:28;17.80;99.90
26982;DHT22;14533;50.848;4.380;2022-08-07T01:35:55;17.80;99.90
26982;DHT22;14533;50.848;4.380;2022-08-07T01:38:22;17.80;99.90
26982;DHT22;14533;50.848;4.380;2022-08-07T01:40:50;17.80;99.90
26982;DHT22;14533;50.848;4.380;2022-08-07T01:43:17;17.80;99.90
26982;DHT22;14533;50.848;4.380;2022-08-07T01:45:43;17.80;99.90
26982;DHT22;14533;50.848;4.380;2022-08-07T01:48:08;17.80;99.90
26982;DHT22;14533;50.848;4.380;2022-08-07T01:50:38;17.80;99.90
26982;DHT22;14533;50.848;4.380;2022-08-07T01:53:06;17.80;99.90
26982;DHT22;14533;50.848;4.380;2022-08-07T01:55:39;17.90;99.90
26982;DHT22;14533;50.848;4.380;2022-08-07T01:58:09;17.80;99.90
26982;DHT22;14533;50.848;4.380;2022-08-07T02:00:38;17.80;99.90
26982;DHT22;14533;50.848;4.380;2022-08-07T02:03:11;17.70;99.90
26982;DHT22;14533;50.848;4.380;2022-08-07T02:05:44;17.70;99.90
26982;DHT22;14533;50.848;4.380;2022-08-07T02:08:16;17.70;99.90
26982;DHT22;14533;50.848;4.380;2022-08-07T02:10:42;17.60;99.90
26982;DHT22;14533;50.848;4.380;2022-08-07T02:13:10;17.60;99.90
26982;DHT22;14533;50.848;4.380;2022-08-07T02:15:38;17.50;99.90
26982;DHT22;14533;50.848;4.380;2022-08-07T02:18:05;17.60;99.90
26982;DHT22;14533;50.848;4.380;2022-08-07T02:20:33;17.50;99.90
26982;DHT22;14533;50.848;4.380;2022-08-07T02:23:02;17.60;99.90
26982;DHT22;14533;50.848;4.380;2022-08-07T02:25:31;17.60;99.90
26982;DHT22;14533;50.848;4.380;2022-08-07T02:28:00;17.60;99.90
26982;DHT22;14533;50.848;4.380;2022-08-07T02:30:26;17.70;99.90
26982;DHT22;14533;50.848;4.380;2022-08-07T02:32:53;17.70;99.90
26982;DHT22;14533;50.848;4.380;2022-08-07T02:35:21;17.80;99.90
26982;DHT22;14533;50.848;4.380;2022-08-07T02:37:48;17.70;99.90
26982;DHT22;14533;50.848;4.380;2022-08-07T02:40:15;17.70;99.90
26982;DHT22;14533;50.848;4.380;2022-08-07T02:42:41;17.60;99.90
26982;DHT22;14533;50.848;4.380;2022-08-07T02:45:10;17.60;99.90
26982;DHT22;14533;50.848;4.380;2022-08-07T02:47:37;17.60;99.90
26982;DHT22;14533;50.848;4.380;2022-08-07T02:50:04;17.60;99.90
26982;DHT22;14533;50.848;4.380;2022-08-07T02:52:55;17.60;99.90
26982;DHT22;14533;50.848;4.380;2022-08-07T02:55:25;17.50;99.90
26982;DHT22;14533;50.848;4.380;2022-08-07T02:57:52;17.40;99.90
26982;DHT22;14533;50.848;4.380;2022-08-07T03:00:19;17.40;99.90
26982;DHT22;14533;50.848;4.380;2022-08-07T03:02:46;17.50;99.90
26982;DHT22;14533;50.848;4.380;2022-08-07T03:05:13;17.40;99.90
26982;DHT22;14533;50.848;4.380;2022-08-07T03:07:40;17.30;99.90
26982;DHT22;14533;50.848;4.380;2022-08-07T03:10:07;17.40;99.90
26982;DHT22;14533;50.848;4.380;2022-08-07T03:12:34;17.40;99.90
26982;DHT22;14533;50.848;4.380;2022-08-07T03:15:02;17.40;99.90
26982;DHT22;14533;50.848;4.380;2022-08-07T03:17:29;17.30;99.90
26982;DHT22;14533;50.848;4.380;2022-08-07T03:19:55;17.20;99.90
26982;DHT22;14533;50.848;4.380;2022-08-07T03:22:22;17.30;99.90
26982;DHT22;14533;50.848;4.380;2022-08-07T03:24:49;17.30;99.90
26982;DHT22;14533;50.848;4.380;2022-08-07T03:27:15;17.30;99.90
26982;DHT22;14533;50.848;4.380;2022-08-07T03:29:45;17.30;99.90
26982;DHT22;14533;50.848;4.380;2022-08-07T03:32:13;17.30;99.90
26982;DHT22;14533;50.848;4.380;2022-08-07T03:34:44;17.20;99.90
26982;DHT22;14533;50.848;4.380;2022-08-07T03:37:11;17.20;99.90
26982;DHT22;14533;50.848;4.380;2022-08-07T03:39:37;17.10;99.90
26982;DHT22;14533;50.848;4.380;2022-08-07T03:42:04;17.00;99.90
26982;DHT22;14533;50.848;4.380;2022-08-07T03:44:34;17.10;99.90
26982;DHT22;14533;50.848;4.380;2022-08-07T03:47:01;17.10;99.90
26982;DHT22;14533;50.848;4.380;2022-08-07T03:49:27;17.10;99.90
26982;DHT22;14533;50.848;4.380;2022-08-07T03:51:54;17.10;99.90
26982;DHT22;14533;50.848;4.380;2022-08-07T03:54:21;17.10;99.90
26982;DHT22;14533;50.848;4.380;2022-08-07T03:56:47;17.10;99.90
26982;DHT22;14533;50.848;4.380;2022-08-07T03:59:13;17.00;99.90
26982;DHT22;14533;50.848;4.380;2022-08-07T04:01:44;17.00;99.90
26982;DHT22;14533;50.848;4.380;2022-08-07T04:04:10;17.00;99.90
26982;DHT22;14533;50.848;4.380;2022-08-07T04:06:37;16.90;99.90
26982;DHT22;14533;50.848;4.380;2022-08-07T04:09:05;16.80;99.90
26982;DHT22;14533;50.848;4.380;2022-08-07T04:11:32;16.90;99.90
26982;DHT22;14533;50.848;4.380;2022-08-07T04:13:59;16.80;99.90
26982;DHT22;14533;50.848;4.380;2022-08-07T04:16:26;16.70;99.90
26982;DHT22;14533;50.848;4.380;2022-08-07T04:18:52;16.80;99.90
26982;DHT22;14533;50.848;4.380;2022-08-07T04:21:18;16.80;99.90
26982;DHT22;14533;50.848;4.380;2022-08-07T04:23:44;16.80;99.90
26982;DHT22;14533;50.848;4.380;2022-08-07T04:26:10;16.70;99.90
26982;DHT22;14533;50.848;4.380;2022-08-07T04:28:37;16.70;99.90
26982;DHT22;14533;50.848;4.380;2022-08-07T04:31:03;16.60;99.90
26982;DHT22;14533;50.848;4.380;2022-08-07T04:33:29;16.50;99.90
26982;DHT22;14533;50.848;4.380;2022-08-07T04:35:55;16.50;99.90
26982;DHT22;14533;50.848;4.380;2022-08-07T04:38:20;16.50;99.90
26982;DHT22;14533;50.848;4.380;2022-08-07T04:40:46;16.50;99.90
26982;DHT22;14533;50.848;4.380;2022-08-07T04:43:15;16.50;99.90
26982;DHT22;14533;50.848;4.380;2022-08-07T04:48:43;16.50;99.90
26982;DHT22;14533;50.848;4.380;2022-08-07T04:51:27;16.50;99.90
26982;DHT22;14533;50.848;4.380;2022-08-07T04:56:56;16.50;99.90
26982;DHT22;14533;50.848;4.380;2022-08-07T04:59:36;16.70;99.90
26982;DHT22;14533;50.848;4.380;2022-08-07T05:02:08;16.80;99.90
26982;DHT22;14533;50.848;4.380;2022-08-07T05:05:01;16.80;99.90
26982;DHT22;14533;50.848;4.380;2022-08-07T05:10:05;16.70;99.90
26982;DHT22;14533;50.848;4.380;2022-08-07T05:12:55;16.70;99.90
26982;DHT22;14533;50.848;4.380;2022-08-07T05:15:35;16.80;99.90
26982;DHT22;14533;50.848;4.380;2022-08-07T05:18:04;16.70;99.90
26982;DHT22;14533;50.848;4.380;2022-08-07T05:20:34;16.70;99.90
26982;DHT22;14533;50.848;4.380;2022-08-07T05:23:08;16.60;99.90
26982;DHT22;14533;50.848;4.380;2022-08-07T05:25:35;16.70;99.90
26982;DHT22;14533;50.848;4.380;2022-08-07T05:28:03;16.70;99.90
26982;DHT22;14533;50.848;4.380;2022-08-07T05:30:31;16.70;99.90
26982;DHT22;14533;50.848;4.380;2022-08-07T05:33:00;16.80;99.90
26982;DHT22;14533;50.848;4.380;2022-08-07T05:35:26;17.00;99.90
26982;DHT22;14533;50.848;4.380;2022-08-07T05:37:53;17.20;99.90
26982;DHT22;14533;50.848;4.380;2022-08-07T05:40:19;17.90;99.90
26982;DHT22;14533;50.848;4.380;2022-08-07T05:42:45;19.40;99.90
26982;DHT22;14533;50.848;4.380;2022-08-07T05:45:12;21.10;99.90
26982;DHT22;14533;50.848;4.380;2022-08-07T05:47:38;22.50;99.90
26982;DHT22;14533;50.848;4.380;2022-08-07T05:50:04;23.50;97.90
26982;DHT22;14533;50.848;4.380;2022-08-07T05:52:31;24.60;95.30
26982;DHT22;14533;50.848;4.380;2022-08-07T05:54:57;25.50;92.90
26982;DHT22;14533;50.848;4.380;2022-08-07T05:57:23;26.20;90.30
26982;DHT22;14533;50.848;4.380;2022-08-07T05:59:49;26.50;87.50
26982;DHT22;14533;50.848;4.380;2022-08-07T06:02:18;26.80;86.10
26982;DHT22;14533;50.848;4.380;2022-08-07T06:04:50;27.30;82.90
26982;DHT22;14533;50.848;4.380;2022-08-07T06:07:16;27.90;80.40
26982;DHT22;14533;50.848;4.380;2022-08-07T06:09:43;27.90;78.40
26982;DHT22;14533;50.848;4.380;2022-08-07T06:12:09;28.40;76.80
26982;DHT22;14533;50.848;4.380;2022-08-07T06:14:35;28.20;75.30
26982;DHT22;14533;50.848;4.380;2022-08-07T06:17:02;28.40;75.50
26982;DHT22;14533;50.848;4.380;2022-08-07T06:19:28;28.60;74.70
26982;DHT22;14533;50.848;4.380;2022-08-07T06:21:55;28.60;73.30
26982;DHT22;14533;50.848;4.380;2022-08-07T06:24:21;28.20;73.70
26982;DHT22;14533;50.848;4.380;2022-08-07T06:26:47;28.00;73.30
26982;DHT22;14533;50.848;4.380;2022-08-07T06:29:13;28.00;74.60
26982;DHT22;14533;50.848;4.380;2022-08-07T06:31:39;28.30;74.50
26982;DHT22;14533;50.848;4.380;2022-08-07T06:34:04;28.40;73.60
26982;DHT22;14533;50.848;4.380;2022-08-07T06:36:30;29.00;71.70
26982;DHT22;14533;50.848;4.380;2022-08-07T06:38:56;28.60;71.30
26982;DHT22;14533;50.848;4.380;2022-08-07T06:41:32;28.70;72.00
26982;DHT22;14533;50.848;4.380;2022-08-07T06:44:01;29.30;69.70
26982;DHT22;14533;50.848;4.380;2022-08-07T06:46:28;28.80;70.00
26982;DHT22;14533;50.848;4.380;2022-08-07T06:48:54;29.60;68.80
26982;DHT22;14533;50.848;4.380;2022-08-07T06:51:23;29.70;67.20
26982;DHT22;14533;50.848;4.380;2022-08-07T06:53:51;30.30;65.90
26982;DHT22;14533;50.848;4.380;2022-08-07T06:56:19;30.70;64.60
26982;DHT22;14533;50.848;4.380;2022-08-07T06:59:06;31.30;62.70
26982;DHT22;14533;50.848;4.380;2022-08-07T07:01:33;32.20;61.40
26982;DHT22;14533;50.848;4.380;2022-08-07T07:03:59;32.90;58.50
26982;DHT22;14533;50.848;4.380;2022-08-07T07:06:25;33.10;56.90
26982;DHT22;14533;50.848;4.380;2022-08-07T07:08:51;33.40;56.40
26982;DHT22;14533;50.848;4.380;2022-08-07T07:11:17;33.40;55.70
26982;DHT22;14533;50.848;4.380;2022-08-07T07:13:46;32.70;55.30
26982;DHT22;14533;50.848;4.380;2022-08-07T07:16:17;32.70;55.80
26982;DHT22;14533;50.848;4.380;2022-08-07T07:18:53;32.90;55.40
26982;DHT22;14533;50.848;4.380;2022-08-07T07:21:23;32.60;55.00
26982;DHT22;14533;50.848;4.380;2022-08-07T07:23:50;33.70;54.30
26982;DHT22;14533;50.848;4.380;2022-08-07T07:26:18;33.20;53.80
26982;DHT22;14533;50.848;4.380;2022-08-07T07:28:51;33.90;53.50
26982;DHT22;14533;50.848;4.380;2022-08-07T07:31:22;34.50;52.00
26982;DHT22;14533;50.848;4.380;2022-08-07T07:33:55;35.70;50.20
26982;DHT22;14533;50.848;4.380;2022-08-07T07:36:23;35.60;49.10
26982;DHT22;14533;50.848;4.380;2022-08-07T07:38:50;36.40;48.10
26982;DHT22;14533;50.848;4.380;2022-08-07T07:41:18;36.50;47.50
26982;DHT22;14533;50.848;4.380;2022-08-07T07:43:46;35.70;47.30
26982;DHT22;14533;50.848;4.380;2022-08-07T07:46:13;34.60;49.20
26982;DHT22;14533;50.848;4.380;2022-08-07T07:48:40;34.60;49.10
26982;DHT22;14533;50.848;4.380;2022-08-07T07:51:07;35.40;49.00
26982;DHT22;14533;50.848;4.380;2022-08-07T07:53:36;35.90;48.00
26982;DHT22;14533;50.848;4.380;2022-08-07T07:56:04;35.90;46.70
26982;DHT22;14533;50.848;4.380;2022-08-07T07:58:34;35.60;47.30
26982;DHT22;14533;50.848;4.380;2022-08-07T08:01:01;35.00;47.80
26982;DHT22;14533;50.848;4.380;2022-08-07T08:03:29;34.40;48.80
26982;DHT22;14533;50.848;4.380;2022-08-07T08:05:55;35.00;48.10
26982;DHT22;14533;50.848;4.380;2022-08-07T08:08:28;35.60;47.00
26982;DHT22;14533;50.848;4.380;2022-08-07T08:10:55;35.50;47.50
26982;DHT22;14533;50.848;4.380;2022-08-07T08:13:23;35.50;46.70
26982;DHT22;14533;50.848;4.380;2022-08-07T08:15:49;35.20;46.80
26982;DHT22;14533;50.848;4.380;2022-08-07T08:18:16;34.60;47.40
26982;DHT22;14533;50.848;4.380;2022-08-07T08:20:42;34.90;46.90
26982;DHT22;14533;50.848;4.380;2022-08-07T08:23:09;35.20;46.60
26982;DHT22;14533;50.848;4.380;2022-08-07T08:25:56;35.60;47.10
26982;DHT22;14533;50.848;4.380;2022-08-07T08:28:43;36.20;45.00
26982;DHT22;14533;50.848;4.380;2022-08-07T08:31:13;35.30;46.30
26982;DHT22;14533;50.848;4.380;2022-08-07T08:33:41;35.60;47.10
26982;DHT22;14533;50.848;4.380;2022-08-07T08:36:09;34.90;47.20
26982;DHT22;14533;50.848;4.380;2022-08-07T08:38:37;35.70;46.90
26982;DHT22;14533;50.848;4.380;2022-08-07T08:41:17;36.70;45.40
26982;DHT22;14533;50.848;4.380;2022-08-07T08:54:44;35.80;45.40
26982;DHT22;14533;50.848;4.380;2022-08-07T08:57:18;35.70;45.40
26982;DHT22;14533;50.848;4.380;2022-08-07T09:00:05;35.10;45.20
26982;DHT22;14533;50.848;4.380;2022-08-07T09:05:22;34.20;46.70
26982;DHT22;14533;50.848;4.380;2022-08-07T09:08:18;35.20;46.00
26982;DHT22;14533;50.848;4.380;2022-08-07T09:16:10;34.30;47.10
26982;DHT22;14533;50.848;4.380;2022-08-07T09:24:53;33.00;48.20
26982;DHT22;14533;50.848;4.380;2022-08-07T09:30:16;32.70;48.10
26982;DHT22;14533;50.848;4.380;2022-08-07T09:38:12;32.50;48.80
26982;DHT22;14533;50.848;4.380;2022-08-07T09:41:01;32.20;48.40
26982;DHT22;14533;50.848;4.380;2022-08-07T09:55:20;32.70;48.40
26982;DHT22;14533;50.848;4.380;2022-08-07T10:00:09;32.00;47.80
26982;DHT22;14533;50.848;4.380;2022-08-07T10:06:06;32.20;48.50
26982;DHT22;14533;50.848;4.380;2022-08-07T10:09:06;32.50;48.10
26982;DHT22;14533;50.848;4.380;2022-08-07T10:14:22;32.60;47.70
26982;DHT22;14533;50.848;4.380;2022-08-07T10:26:00;31.90;47.50
26982;DHT22;14533;50.848;4.380;2022-08-07T10:28:58;31.10;47.90
26982;DHT22;14533;50.848;4.380;2022-08-07T10:34:26;29.10;50.70
26982;DHT22;14533;50.848;4.380;2022-08-07T10:42:31;30.30;49.80
26982;DHT22;14533;50.848;4.380;2022-08-07T10:45:23;30.20;49.90
26982;DHT22;14533;50.848;4.380;2022-08-07T10:51:02;30.50;50.60
26982;DHT22;14533;50.848;4.380;2022-08-07T10:53:46;30.60;49.40
26982;DHT22;14533;50.848;4.380;2022-08-07T10:59:11;31.00;50.60
26982;DHT22;14533;50.848;4.380;2022-08-07T11:01:50;31.30;48.40
26982;DHT22;14533;50.848;4.380;2022-08-07T11:07:00;30.40;49.10
26982;DHT22;14533;50.848;4.380;2022-08-07T11:09:33;29.80;50.20
26982;DHT22;14533;50.848;4.380;2022-08-07T11:12:10;29.80;51.20
26982;DHT22;14533;50.848;4.380;2022-08-07T11:14:59;30.00;50.10
26982;DHT22;14533;50.848;4.380;2022-08-07T11:17:37;30.60;49.50
26982;DHT22;14533;50.848;4.380;2022-08-07T11:20:17;30.70;48.80
26982;DHT22;14533;50.848;4.380;2022-08-07T11:26:04;30.60;49.40
26982;DHT22;14533;50.848;4.380;2022-08-07T11:28:44;30.40;49.20
26982;DHT22;14533;50.848;4.380;2022-08-07T11:32:00;30.30;49.60
26982;DHT22;14533;50.848;4.380;2022-08-07T11:34:35;29.70;49.40
26982;DHT22;14533;50.848;4.380;2022-08-07T11:54:14;29.10;51.40
26982;DHT22;14533;50.848;4.380;2022-08-07T11:57:15;29.50;50.40
26982;DHT22;14533;50.848;4.380;2022-08-07T12:00:09;29.70;49.80
26982;DHT22;14533;50.848;4.380;2022-08-07T12:08:28;29.60;48.90
26982;DHT22;14533;50.848;4.380;2022-08-07T12:11:12;28.60;50.20
26982;DHT22;14533;50.848;4.380;2022-08-07T12:13:40;28.50;50.50
26982;DHT22;14533;50.848;4.380;2022-08-07T12:16:24;28.00;51.50
26982;DHT22;14533;50.848;4.380;2022-08-07T12:19:04;27.90;50.60
26982;DHT22;14533;50.848;4.380;2022-08-07T12:22:18;28.20;51.60
26982;DHT22;14533;50.848;4.380;2022-08-07T12:25:21;28.70;51.40
26982;DHT22;14533;50.848;4.380;2022-08-07T12:28:14;28.90;49.70
26982;DHT22;14533;50.848;4.380;2022-08-07T12:30:43;28.80;50.50
26982;DHT22;14533;50.848;4.380;2022-08-07T12:33:13;28.90;51.20
26982;DHT22;14533;50.848;4.380;2022-08-07T12:35:44;29.30;49.40
26982;DHT22;14533;50.848;4.380;2022-08-07T12:38:12;29.70;49.10
26982;DHT22;14533;50.848;4.380;2022-08-07T12:40:40;29.90;49.00
26982;DHT22;14533;50.848;4.380;2022-08-07T12:43:09;29.80;48.70
26982;DHT22;14533;50.848;4.380;2022-08-07T12:48:28;30.20;47.80
26982;DHT22;14533;50.848;4.380;2022-08-07T12:51:12;30.40;47.30
26982;DHT22;14533;50.848;4.380;2022-08-07T12:53:55;30.20;45.60
26982;DHT22;14533;50.848;4.380;2022-08-07T12:58:52;30.70;46.80
26982;DHT22;14533;50.848;4.380;2022-08-07T13:13:07;30.50;46.70
26982;DHT22;14533;50.848;4.380;2022-08-07T13:15:36;30.60;47.20
26982;DHT22;14533;50.848;4.380;2022-08-07T13:21:00;31.00;46.50
26982;DHT22;14533;50.848;4.380;2022-08-07T13:26:30;30.80;46.40
26982;DHT22;14533;50.848;4.380;2022-08-07T13:29:22;31.20;46.80
26982;DHT22;14533;50.848;4.380;2022-08-07T13:32:17;30.90;45.60
26982;DHT22;14533;50.848;4.380;2022-08-07T13:34:53;30.20;46.30
26982;DHT22;14533;50.848;4.380;2022-08-07T13:40:04;29.70;47.70
26982;DHT22;14533;50.848;4.380;2022-08-07T13:42:31;30.00;47.20
26982;DHT22;14533;50.848;4.380;2022-08-07T13:44:58;30.00;47.20
26982;DHT22;14533;50.848;4.380;2022-08-07T13:47:28;30.30;47.70
26982;DHT22;14533;50.848;4.380;2022-08-07T13:49:58;30.70;46.70
26982;DHT22;14533;50.848;4.380;2022-08-07T13:52:26;30.60;46.90
26982;DHT22;14533;50.848;4.380;2022-08-07T13:54:58;30.90;46.40
26982;DHT22;14533;50.848;4.380;2022-08-07T13:57:27;31.00;46.60
26982;DHT22;14533;50.848;4.380;2022-08-07T13:59:54;31.10;46.70
26982;DHT22;14533;50.848;4.380;2022-08-07T14:02:25;30.90;46.80
26982;DHT22;14533;50.848;4.380;2022-08-07T14:04:58;31.20;47.30
26982;DHT22;14533;50.848;4.380;2022-08-07T14:07:30;31.30;46.50
26982;DHT22;14533;50.848;4.380;2022-08-07T14:09:59;31.10;46.00
26982;DHT22;14533;50.848;4.380;2022-08-07T14:12:25;31.20;46.70
26982;DHT22;14533;50.848;4.380;2022-08-07T14:15:04;31.10;47.10
26982;DHT22;14533;50.848;4.380;2022-08-07T14:17:35;31.10;47.20
26982;DHT22;14533;50.848;4.380;2022-08-07T14:20:10;30.70;48.00
26982;DHT22;14533;50.848;4.380;2022-08-07T14:22:41;30.80;48.00
26982;DHT22;14533;50.848;4.380;2022-08-07T14:25:12;30.80;47.30
26982;DHT22;14533;50.848;4.380;2022-08-07T14:27:45;31.10;47.60
26982;DHT22;14533;50.848;4.380;2022-08-07T14:30:13;31.10;47.80
26982;DHT22;14533;50.848;4.380;2022-08-07T14:32:56;31.30;47.60
26982;DHT22;14533;50.848;4.380;2022-08-07T14:35:26;31.10;47.80
26982;DHT22;14533;50.848;4.380;2022-08-07T14:37:55;31.00;47.10
26982;DHT22;14533;50.848;4.380;2022-08-07T14:40:23;31.20;47.20
26982;DHT22;14533;50.848;4.380;2022-08-07T14:43:07;31.30;46.70
26982;DHT22;14533;50.848;4.380;2022-08-07T14:45:41;31.50;46.70
26982;DHT22;14533;50.848;4.380;2022-08-07T14:48:08;31.60;47.10
26982;DHT22;14533;50.848;4.380;2022-08-07T14:50:38;31.40;47.00
26982;DHT22;14533;50.848;4.380;2022-08-07T14:53:05;31.50;46.90
26982;DHT22;14533;50.848;4.380;2022-08-07T14:55:33;31.70;46.70
26982;DHT22;14533;50.848;4.380;2022-08-07T14:58:01;31.80;46.10
26982;DHT22;14533;50.848;4.380;2022-08-07T15:00:31;31.90;47.00
26982;DHT22;14533;50.848;4.380;2022-08-07T15:03:01;32.10;47.00
26982;DHT22;14533;50.848;4.380;2022-08-07T15:05:28;32.20;47.20
26982;DHT22;14533;50.848;4.380;2022-08-07T15:07:55;31.60;47.70
26982;DHT22;14533;50.848;4.380;2022-08-07T15:10:24;31.70;47.60
26982;DHT22;14533;50.848;4.380;2022-08-07T15:12:55;31.70;47.30
26982;DHT22;14533;50.848;4.380;2022-08-07T15:15:29;31.50;47.60
26982;DHT22;14533;50.848;4.380;2022-08-07T15:18:00;31.40;47.90
26982;DHT22;14533;50.848;4.380;2022-08-07T15:20:30;31.70;47.70
26982;DHT22;14533;50.848;4.380;2022-08-07T15:22:59;31.90;47.50
26982;DHT22;14533;50.848;4.380;2022-08-07T15:25:33;31.00;47.80
26982;DHT22;14533;50.848;4.380;2022-08-07T15:28:02;30.50;48.60
26982;DHT22;14533;50.848;4.380;2022-08-07T15:30:30;30.10;49.20
26982;DHT22;14533;50.848;4.380;2022-08-07T15:32:57;30.30;49.20
26982;DHT22;14533;50.848;4.380;2022-08-07T15:35:25;30.30;48.90
26982;DHT22;14533;50.848;4.380;2022-08-07T15:38:01;30.30;48.90
26982;DHT22;14533;50.848;4.380;2022-08-07T15:40:29;29.90;49.50
26982;DHT22;14533;50.848;4.380;2022-08-07T15:43:11;29.70;49.10
26982;DHT22;14533;50.848;4.380;2022-08-07T15:45:40;29.40;49.70
26982;DHT22;14533;50.848;4.380;2022-08-07T15:48:07;29.00;50.10
26982;DHT22;14533;50.848;4.380;2022-08-07T15:50:40;29.10;50.20
26982;DHT22;14533;50.848;4.380;2022-08-07T15:53:24;29.30;50.30
26982;DHT22;14533;50.848;4.380;2022-08-07T15:55:54;28.90;50.20
26982;DHT22;14533;50.848;4.380;2022-08-07T16:01:14;28.60;50.60
26982;DHT22;14533;50.848;4.380;2022-08-07T16:03:43;28.20;51.40
26982;DHT22;14533;50.848;4.380;2022-08-07T16:06:11;27.80;51.70
26982;DHT22;14533;50.848;4.380;2022-08-07T16:08:40;27.60;52.30
26982;DHT22;14533;50.848;4.380;2022-08-07T16:11:16;27.50;52.70
26982;DHT22;14533;50.848;4.380;2022-08-07T16:16:33;27.60;52.40
26982;DHT22;14533;50.848;4.380;2022-08-07T16:21:47;27.60;52.50
26982;DHT22;14533;50.848;4.380;2022-08-07T16:25:09;27.30;52.90
26982;DHT22;14533;50.848;4.380;2022-08-07T16:27:33;27.40;53.30
26982;DHT22;14533;50.848;4.380;2022-08-07T16:30:06;27.50;52.80
26982;DHT22;14533;50.848;4.380;2022-08-07T16:32:44;27.60;53.30
26982;DHT22;14533;50.848;4.380;2022-08-07T16:35:35;27.70;53.30
26982;DHT22;14533;50.848;4.380;2022-08-07T16:38:33;27.30;54.20
26982;DHT22;14533;50.848;4.380;2022-08-07T16:41:19;27.10;54.80
26982;DHT22;14533;50.848;4.380;2022-08-07T16:44:15;27.00;55.30
26982;DHT22;14533;50.848;4.380;2022-08-07T17:05:44;26.80;56.60
26982;DHT22;14533;50.848;4.380;2022-08-07T17:08:17;26.60;57.20
26982;DHT22;14533;50.848;4.380;2022-08-07T17:10:54;26.60;57.50
26982;DHT22;14533;50.848;4.380;2022-08-07T17:21:14;25.70;60.00
26982;DHT22;14533;50.848;4.380;2022-08-07T17:27:03;25.80;60.60
26982;DHT22;14533;50.848;4.380;2022-08-07T17:34:54;25.70;62.00
26982;DHT22;14533;50.848;4.380;2022-08-07T17:37:38;25.80;62.20
26982;DHT22;14533;50.848;4.380;2022-08-07T17:40:20;25.50;63.10
26982;DHT22;14533;50.848;4.380;2022-08-07T17:43:15;25.20;64.30
26982;DHT22;14533;50.848;4.380;2022-08-07T17:45:50;25.20;64.60
26982;DHT22;14533;50.848;4.380;2022-08-07T17:48:32;25.10;64.90
26982;DHT22;14533;50.848;4.380;2022-08-07T17:51:19;25.40;64.30
26982;DHT22;14533;50.848;4.380;2022-08-07T17:59:41;24.60;67.00
26982;DHT22;14533;50.848;4.380;2022-08-07T18:02:21;24.60;67.80
26982;DHT22;14533;50.848;4.380;2022-08-07T18:05:03;24.50;67.90
26982;DHT22;14533;50.848;4.380;2022-08-07T18:17:48;24.50;68.90
26982;DHT22;14533;50.848;4.380;2022-08-07T18:20:26;24.50;68.60
26982;DHT22;14533;50.848;4.380;2022-08-07T18:23:07;24.50;68.80
26982;DHT22;14533;50.848;4.380;2022-08-07T18:25:34;24.40;69.10
26982;DHT22;14533;50.848;4.380;2022-08-07T18:28:18;24.30;69.70
26982;DHT22;14533;50.848;4.380;2022-08-07T18:36:21;24.30;70.30
26982;DHT22;14533;50.848;4.380;2022-08-07T18:41:21;24.10;71.70
26982;DHT22;14533;50.848;4.380;2022-08-07T18:44:30;24.10;71.70
26982;DHT22;14533;50.848;4.380;2022-08-07T18:55:53;23.70;73.60
26982;DHT22;14533;50.848;4.380;2022-08-07T18:58:33;23.60;74.50
26982;DHT22;14533;50.848;4.380;2022-08-07T19:03:55;23.80;74.50
26982;DHT22;14533;50.848;4.380;2022-08-07T19:06:35;23.70;75.10
26982;DHT22;14533;50.848;4.380;2022-08-07T19:09:20;23.60;75.40
26982;DHT22;14533;50.848;4.380;2022-08-07T19:12:12;23.40;76.30
26982;DHT22;14533;50.848;4.380;2022-08-07T19:15:03;23.30;77.00
26982;DHT22;14533;50.848;4.380;2022-08-07T19:20:53;23.30;77.40
26982;DHT22;14533;50.848;4.380;2022-08-07T19:23:49;23.40;77.50
26982;DHT22;14533;50.848;4.380;2022-08-07T19:26:13;23.20;78.40
26982;DHT22;14533;50.848;4.380;2022-08-07T19:28:50;23.10;78.90
26982;DHT22;14533;50.848;4.380;2022-08-07T19:31:23;23.20;79.00
26982;DHT22;14533;50.848;4.380;2022-08-07T19:33:50;23.10;79.30
26982;DHT22;14533;50.848;4.380;2022-08-07T19:36:17;23.00;79.90
26982;DHT22;14533;50.848;4.380;2022-08-07T19:38:46;22.90;80.80
26982;DHT22;14533;50.848;4.380;2022-08-07T19:41:12;22.90;80.90